createdAt,value
2018-10-07T00:00:05.747Z,62.29
2018-10-07T00:02:33.247Z,62.77
2018-10-07T00:05:00.669Z,62.44
2018-10-07T00:07:28.093Z,62.73
2018-10-07T00:09:55.503Z,61.73
2018-10-07T00:12:22.924Z,62.15
2018-10-07T00:14:50.432Z,62.68
2018-10-07T00:17:17.855Z,62.26
2018-10-07T00:19:45.275Z,62.17
2018-10-07T00:22:12.686Z,62.95
2018-10-07T00:24:40.176Z,62.99
2018-10-07T00:27:07.592Z,62.44
2018-10-07T00:29:35.020Z,62.84
2018-10-07T00:32:07.943Z,62.99
2018-10-07T00:34:35.424Z,63.25
2018-10-07T00:37:02.847Z,63.09
2018-10-07T00:39:30.267Z,63.04
2018-10-07T00:41:57.679Z,63.13
2018-10-07T00:44:25.102Z,63.11
2018-10-07T00:46:52.613Z,62.99
2018-10-07T00:49:20.019Z,63.47
2018-10-07T00:51:47.435Z,62.99
2018-10-07T00:54:14.857Z,64.15
2018-10-07T00:56:42.267Z,64.09
2018-10-07T00:59:09.800Z,64.46
2018-10-07T01:01:37.223Z,64.85
2018-10-07T01:04:04.646Z,64.85
2018-10-07T01:06:32.171Z,64.97
2018-10-07T01:08:59.592Z,65.75
2018-10-07T01:11:27.005Z,65.25
2018-10-07T01:13:54.423Z,65.26
2018-10-07T01:16:21.829Z,65.27
2018-10-07T01:18:49.242Z,65.58
2018-10-07T01:21:16.720Z,65.19
2018-10-07T01:23:44.171Z,65.16
2018-10-07T01:26:11.584Z,66.04
2018-10-07T01:28:39.007Z,65.86
2018-10-07T01:31:06.440Z,66.12
2018-10-07T01:33:33.867Z,66.54
2018-10-07T01:36:01.353Z,66.04
2018-10-07T01:38:28.775Z,67.61
2018-10-07T01:40:56.196Z,67.06
2018-10-07T01:43:23.623Z,67.00
2018-10-07T01:45:51.103Z,67.50
2018-10-07T01:48:18.539Z,67.10
2018-10-07T01:50:45.995Z,67.60
2018-10-07T01:53:13.425Z,67.53
2018-10-07T01:55:40.831Z,67.30
2018-10-07T01:58:08.251Z,67.87
2018-10-07T02:00:35.724Z,68.01
2018-10-07T02:03:03.139Z,67.67
2018-10-07T02:05:30.559Z,67.69
2018-10-07T02:07:57.987Z,67.90
2018-10-07T02:10:25.408Z,68.20
2018-10-07T02:12:52.825Z,68.46
2018-10-07T02:15:20.259Z,67.56
2018-10-07T02:17:47.663Z,68.66
2018-10-07T02:20:15.081Z,68.55
2018-10-07T02:22:42.509Z,68.32
2018-10-07T02:25:09.932Z,68.35
2018-10-07T02:27:37.351Z,68.63
2018-10-07T02:30:04.767Z,68.79
2018-10-07T02:32:32.175Z,68.52
2018-10-07T02:34:59.604Z,68.18
2018-10-07T02:37:27.051Z,68.83
2018-10-07T02:39:54.527Z,68.95
2018-10-07T02:42:21.938Z,68.19
2018-10-07T02:44:49.347Z,67.96
2018-10-07T02:47:16.771Z,68.15
2018-10-07T02:49:44.204Z,68.15
2018-10-07T02:52:11.626Z,68.33
2018-10-07T02:54:39.047Z,69.08
2018-10-07T02:57:06.459Z,68.38
2018-10-07T02:59:33.884Z,69.08
2018-10-07T03:02:01.351Z,68.29
2018-10-07T03:04:28.841Z,68.95
2018-10-07T03:06:56.198Z,69.46
2018-10-07T03:09:23.611Z,69.26
2018-10-07T03:11:51.037Z,68.91
2018-10-07T03:14:18.451Z,70.27
2018-10-07T03:16:45.867Z,70.61
2018-10-07T03:19:13.298Z,70.45
2018-10-07T03:21:40.711Z,70.68
2018-10-07T03:24:08.163Z,70.00
2018-10-07T03:26:35.574Z,69.33
2018-10-07T03:29:03.008Z,69.83
2018-10-07T03:31:30.421Z,69.86
2018-10-07T03:33:57.836Z,69.66
2018-10-07T03:36:25.338Z,69.45
2018-10-07T03:38:52.760Z,69.37
2018-10-07T03:41:20.183Z,68.95
2018-10-07T03:43:47.603Z,68.49
2018-10-07T03:46:15.012Z,67.87
2018-10-07T03:48:42.456Z,68.09
2018-10-07T03:51:09.872Z,67.71
2018-10-07T03:53:37.288Z,68.34
2018-10-07T03:56:04.702Z,68.77
2018-10-07T03:58:32.123Z,69.00
2018-10-07T04:00:59.616Z,69.99
2018-10-07T04:03:27.025Z,70.82
2018-10-07T04:05:54.496Z,69.83
2018-10-07T04:08:21.986Z,69.64
2018-10-07T04:10:49.399Z,69.20
2018-10-07T04:13:16.899Z,68.86
2018-10-07T04:15:44.315Z,68.88
2018-10-07T04:18:11.734Z,69.06
2018-10-07T04:20:39.171Z,69.34
2018-10-07T04:23:06.594Z,69.96
2018-10-07T04:25:34.007Z,69.42
2018-10-07T04:28:01.428Z,68.85
2018-10-07T04:30:28.910Z,68.21
2018-10-07T04:32:56.325Z,68.92
2018-10-07T04:35:23.795Z,68.79
2018-10-07T04:37:51.338Z,69.23
2018-10-07T04:40:18.836Z,69.82
2018-10-07T04:42:46.395Z,69.37
2018-10-07T04:45:13.851Z,69.73
2018-10-07T04:47:41.273Z,70.02
2018-10-07T04:50:08.839Z,69.57
2018-10-07T04:52:36.629Z,69.03
2018-10-07T04:55:04.043Z,69.68
2018-10-07T04:57:31.460Z,70.40
2018-10-07T04:59:59.070Z,70.73
2018-10-07T05:02:26.638Z,71.22
2018-10-07T05:04:54.067Z,70.97
2018-10-07T05:07:21.687Z,70.69
2018-10-07T05:09:49.116Z,71.42
2018-10-07T05:12:16.790Z,71.37
2018-10-07T05:14:43.960Z,72.24
2018-10-07T05:17:11.419Z,72.03
2018-10-07T05:19:38.839Z,72.25
2018-10-07T05:22:06.330Z,73.13
2018-10-07T05:24:33.742Z,74.41
2018-10-07T05:27:01.155Z,74.09
2018-10-07T05:29:28.599Z,73.75
2018-10-07T05:31:56.027Z,73.55
2018-10-07T05:34:23.443Z,73.91
2018-10-07T05:36:50.881Z,73.99
2018-10-07T05:39:18.339Z,74.05
2018-10-07T05:41:45.743Z,74.21
2018-10-07T05:44:13.219Z,74.90
2018-10-07T05:46:40.583Z,74.33
2018-10-07T05:49:07.999Z,74.68
2018-10-07T05:51:35.507Z,74.61
2018-10-07T05:54:02.923Z,72.29
2018-10-07T05:56:30.339Z,70.96
2018-10-07T05:58:58.504Z,72.32
2018-10-07T06:01:25.922Z,71.37
2018-10-07T06:03:53.619Z,69.61
2018-10-07T06:06:21.043Z,68.49
2018-10-07T06:08:48.459Z,68.57
2018-10-07T06:11:15.895Z,69.15
2018-10-07T06:13:43.327Z,67.52
2018-10-07T06:16:10.797Z,69.54
2018-10-07T06:18:38.167Z,68.52
2018-10-07T06:21:05.588Z,67.96
2018-10-07T06:23:32.998Z,69.75
2018-10-07T06:26:00.416Z,69.91
2018-10-07T06:28:27.835Z,68.25
2018-10-07T06:30:55.256Z,68.14
2018-10-07T06:33:22.672Z,69.95
2018-10-07T06:35:50.099Z,68.24
2018-10-07T06:38:17.517Z,68.01
2018-10-07T06:40:44.979Z,67.95
2018-10-07T06:43:12.527Z,67.29
2018-10-07T06:45:40.054Z,65.45
2018-10-07T06:48:07.419Z,65.07
2018-10-07T06:50:34.855Z,65.55
2018-10-07T06:53:02.270Z,64.90
2018-10-07T06:55:29.702Z,65.59
2018-10-07T06:57:57.171Z,65.40
2018-10-07T07:00:24.639Z,65.69
2018-10-07T07:02:52.051Z,65.00
2018-10-07T07:05:19.471Z,64.18
2018-10-07T07:07:46.916Z,63.49
2018-10-07T07:10:14.338Z,63.04
2018-10-07T07:12:41.750Z,61.93
2018-10-07T07:15:09.178Z,62.37
2018-10-07T07:17:36.603Z,62.60
2018-10-07T07:20:04.046Z,61.32
2018-10-07T07:22:31.770Z,62.05
2018-10-07T07:24:59.227Z,60.98
2018-10-07T07:27:26.627Z,59.85
2018-10-07T07:29:54.043Z,59.81
2018-10-07T07:32:21.467Z,58.22
2018-10-07T07:34:48.926Z,58.56
2018-10-07T07:37:16.348Z,59.29
2018-10-07T07:39:43.756Z,58.82
2018-10-07T07:42:11.226Z,59.12
2018-10-07T07:44:38.605Z,58.56
2018-10-07T07:47:06.035Z,58.46
2018-10-07T07:49:33.460Z,57.95
2018-10-07T07:52:00.862Z,57.06
2018-10-07T07:54:28.292Z,57.93
2018-10-07T07:56:55.741Z,57.13
2018-10-07T07:59:23.203Z,57.07
2018-10-07T08:01:50.632Z,55.67
2018-10-07T08:04:18.063Z,56.85
2018-10-07T08:06:45.483Z,56.50
2018-10-07T08:09:12.898Z,57.05
2018-10-07T08:11:40.463Z,56.17
2018-10-07T08:14:07.888Z,55.77
2018-10-07T08:16:35.387Z,55.56
2018-10-07T08:19:02.799Z,56.53
2018-10-07T08:21:30.238Z,57.45
2018-10-07T08:23:57.754Z,57.16
2018-10-07T08:26:25.075Z,58.30
2018-10-07T08:28:52.595Z,58.72
2018-10-07T08:31:20.090Z,58.24
2018-10-07T08:33:47.528Z,60.00
2018-10-07T08:36:14.954Z,58.92
2018-10-07T08:38:42.490Z,59.25
2018-10-07T08:41:09.987Z,59.29
2018-10-07T08:43:37.431Z,60.09
2018-10-07T08:46:04.863Z,59.51
2018-10-07T08:48:32.282Z,59.36
2018-10-07T08:50:59.695Z,60.55
2018-10-07T08:53:27.171Z,59.54
2018-10-07T08:55:54.637Z,59.12
2018-10-07T08:58:22.019Z,59.74
2018-10-07T09:00:49.446Z,59.09
2018-10-07T09:03:16.889Z,58.64
2018-10-07T09:05:44.360Z,57.00
2018-10-07T09:08:11.830Z,58.28
2018-10-07T09:10:39.246Z,58.52
2018-10-07T09:13:06.683Z,58.68
2018-10-07T09:15:34.191Z,58.01
2018-10-07T09:18:01.641Z,57.27
2018-10-07T09:20:29.054Z,57.46
2018-10-07T09:22:56.566Z,55.63
2018-10-07T09:25:24.003Z,56.51
2018-10-07T09:27:51.440Z,57.13
2018-10-07T09:30:18.851Z,55.92
2018-10-07T09:32:46.288Z,57.17
2018-10-07T09:35:13.696Z,58.13
2018-10-07T09:37:41.115Z,57.51
2018-10-07T09:40:08.531Z,57.42
2018-10-07T09:42:35.950Z,57.69
2018-10-07T09:45:03.384Z,58.43
2018-10-07T09:47:30.830Z,59.44
2018-10-07T09:49:58.263Z,58.70
2018-10-07T09:52:25.850Z,59.25
2018-10-07T09:54:53.100Z,59.75
2018-10-07T09:57:20.559Z,59.68
2018-10-07T09:59:47.979Z,58.93
2018-10-07T10:02:15.399Z,59.65
2018-10-07T10:04:42.909Z,59.04
2018-10-07T10:07:10.325Z,59.52
2018-10-07T10:09:37.711Z,60.22
2018-10-07T10:12:05.146Z,62.36
2018-10-07T10:14:32.568Z,62.21
2018-10-07T10:17:00.021Z,62.92
2018-10-07T10:19:27.485Z,63.23
2018-10-07T10:21:54.896Z,62.64
2018-10-07T10:24:22.322Z,61.75
2018-10-07T10:26:49.763Z,63.71
2018-10-07T10:29:18.082Z,62.99
2018-10-07T10:31:45.498Z,63.56
2018-10-07T10:34:13.004Z,63.87
2018-10-07T10:36:40.499Z,64.46
2018-10-07T10:39:07.930Z,63.98
2018-10-07T10:41:35.355Z,63.38
2018-10-07T10:44:02.783Z,62.71
2018-10-07T10:46:30.198Z,63.59
2018-10-07T10:48:57.627Z,63.22
2018-10-07T10:51:25.152Z,64.15
2018-10-07T10:53:52.595Z,64.38
2018-10-07T10:56:20.055Z,65.08
2018-10-07T10:58:47.519Z,65.48
2018-10-07T11:01:14.943Z,65.27
2018-10-07T11:03:43.015Z,64.82
2018-10-07T11:06:10.599Z,65.06
2018-10-07T11:08:38.023Z,65.45
2018-10-07T11:11:05.523Z,64.64
2018-10-07T11:13:32.964Z,65.65
2018-10-07T11:16:00.532Z,65.45
2018-10-07T11:18:27.963Z,65.90
2018-10-07T11:20:56.235Z,66.04
2018-10-07T11:23:23.728Z,65.85
2018-10-07T11:25:51.187Z,66.60
2018-10-07T11:28:18.620Z,66.16
2018-10-07T11:30:46.101Z,66.35
2018-10-07T11:33:13.558Z,65.92
2018-10-07T11:35:41.248Z,65.75
2018-10-07T11:38:08.656Z,67.63
2018-10-07T11:40:36.152Z,68.02
2018-10-07T11:43:03.600Z,67.59
2018-10-07T11:45:31.012Z,68.91
2018-10-07T11:47:58.443Z,68.99
2018-10-07T11:50:25.859Z,69.10
2018-10-07T11:52:54.087Z,68.82
2018-10-07T11:55:21.455Z,69.03
2018-10-07T11:57:48.887Z,69.39
2018-10-07T12:00:16.482Z,68.49
2018-10-07T12:02:44.044Z,68.40
2018-10-07T12:05:11.361Z,68.32
2018-10-07T12:07:38.756Z,67.77
2018-10-07T12:10:06.242Z,68.41
2018-10-07T12:12:33.611Z,68.75
2018-10-07T12:15:01.064Z,68.79
2018-10-07T12:17:28.487Z,68.31
2018-10-07T12:19:55.973Z,68.01
2018-10-07T12:22:23.431Z,67.31
2018-10-07T12:24:50.847Z,67.97
2018-10-07T12:27:18.371Z,67.98
2018-10-07T12:29:45.790Z,68.50
2018-10-07T12:32:13.223Z,68.77
2018-10-07T12:34:40.651Z,68.51
2018-10-07T12:37:08.072Z,69.24
2018-10-07T12:39:35.915Z,70.16
2018-10-07T12:42:03.555Z,69.69
2018-10-07T12:44:31.130Z,68.52
2018-10-07T12:46:58.687Z,68.42
2018-10-07T12:49:26.112Z,68.71
2018-10-07T12:51:53.532Z,68.50
2018-10-07T12:54:21.000Z,68.22
2018-10-07T12:56:48.448Z,68.81
2018-10-07T12:59:15.915Z,69.29
2018-10-07T13:01:43.378Z,68.73
2018-10-07T13:04:10.826Z,68.73
2018-10-07T13:06:38.251Z,67.37
2018-10-07T13:09:05.755Z,66.33
2018-10-07T13:11:33.181Z,67.46
2018-10-07T13:14:00.601Z,67.32
2018-10-07T13:16:28.011Z,67.86
2018-10-07T13:18:55.435Z,67.81
2018-10-07T13:21:22.856Z,67.68
2018-10-07T13:23:50.276Z,67.39
2018-10-07T13:26:17.715Z,66.59
2018-10-07T13:28:45.130Z,66.62
2018-10-07T13:31:12.544Z,66.95
2018-10-07T13:33:40.042Z,67.49
2018-10-07T13:36:07.431Z,67.08
2018-10-07T13:38:34.859Z,68.46
2018-10-07T13:41:02.279Z,67.19
2018-10-07T13:43:29.707Z,66.74
2018-10-07T13:45:57.188Z,67.54
2018-10-07T13:48:24.647Z,67.09
2018-10-07T13:50:52.175Z,67.24
2018-10-07T13:53:19.642Z,66.10
2018-10-07T13:55:47.010Z,66.52
2018-10-07T13:58:14.428Z,66.59
2018-10-07T14:00:41.859Z,65.42
2018-10-07T14:03:09.271Z,64.98
2018-10-07T14:05:36.695Z,65.56
2018-10-07T14:08:04.217Z,64.85
2018-10-07T14:10:31.831Z,65.25
2018-10-07T14:12:59.400Z,65.37
2018-10-07T14:15:26.820Z,64.47
2018-10-07T14:17:54.239Z,65.08
2018-10-07T14:20:21.776Z,64.66
2018-10-07T14:22:49.267Z,65.33
2018-10-07T14:25:16.690Z,63.75
2018-10-07T14:27:44.173Z,63.69
2018-10-07T14:30:11.639Z,63.70
2018-10-07T14:32:39.069Z,63.56
2018-10-07T14:35:06.544Z,65.16
2018-10-07T14:37:33.983Z,64.71
2018-10-07T14:40:01.399Z,64.90
2018-10-07T14:42:28.819Z,65.03
2018-10-07T14:44:56.242Z,64.60
2018-10-07T14:47:23.696Z,64.90
2018-10-07T14:49:51.111Z,65.28
2018-10-07T14:52:18.534Z,65.52
2018-10-07T14:54:45.958Z,65.25
2018-10-07T14:57:13.371Z,65.19
2018-10-07T14:59:40.786Z,64.54
2018-10-07T15:02:08.206Z,64.96
2018-10-07T15:04:35.629Z,64.90
2018-10-07T15:07:03.031Z,64.87
2018-10-07T15:09:30.461Z,64.30
2018-10-07T15:11:57.867Z,65.26
2018-10-07T15:14:25.291Z,64.45
2018-10-07T15:16:52.690Z,63.28
2018-10-07T15:19:20.172Z,63.85
2018-10-07T15:21:47.627Z,63.81
2018-10-07T15:24:15.046Z,63.81
2018-10-07T15:26:42.462Z,63.11
2018-10-07T15:29:09.923Z,63.67
2018-10-07T15:31:37.323Z,63.61
2018-10-07T15:34:04.738Z,63.18
2018-10-07T15:36:32.150Z,63.79
2018-10-07T15:38:59.568Z,64.29
2018-10-07T15:41:26.991Z,63.84
2018-10-07T15:43:54.399Z,64.37
2018-10-07T15:46:21.816Z,64.27
2018-10-07T15:48:49.230Z,64.48
2018-10-07T15:51:16.679Z,63.75
2018-10-07T15:53:44.141Z,64.25
2018-10-07T15:56:11.521Z,63.36
2018-10-07T15:58:38.939Z,63.91
2018-10-07T16:01:06.443Z,63.40
2018-10-07T16:03:33.871Z,62.97
2018-10-07T16:06:01.304Z,63.89
2018-10-07T16:08:28.719Z,64.12
2018-10-07T16:10:56.133Z,64.13
2018-10-07T16:13:23.552Z,64.75
2018-10-07T16:15:50.976Z,64.29
2018-10-07T16:18:18.458Z,64.52
2018-10-07T16:20:45.847Z,65.37
2018-10-07T16:23:13.255Z,64.50
2018-10-07T16:25:40.711Z,64.47
2018-10-07T16:28:08.135Z,64.48
2018-10-07T16:30:35.563Z,64.37
2018-10-07T16:33:02.977Z,64.96
2018-10-07T16:35:30.391Z,64.46
2018-10-07T16:37:57.806Z,64.18
2018-10-07T16:40:25.319Z,64.56
2018-10-07T16:42:53.076Z,64.37
2018-10-07T16:45:20.502Z,64.82
2018-10-07T16:47:47.927Z,65.01
2018-10-07T16:50:15.385Z,65.49
2018-10-07T16:52:42.804Z,65.41
2018-10-07T16:55:10.222Z,66.13
2018-10-07T16:57:37.635Z,65.70
2018-10-07T17:00:05.060Z,65.72
2018-10-07T17:02:32.540Z,65.38
2018-10-07T17:04:59.980Z,65.57
2018-10-07T17:07:27.391Z,66.03
2018-10-07T17:09:54.808Z,65.31
2018-10-07T17:12:22.228Z,65.68
2018-10-07T17:14:49.635Z,65.58
2018-10-07T17:17:17.073Z,65.84
2018-10-07T17:19:44.470Z,66.07
2018-10-07T17:22:11.921Z,65.26
2018-10-07T17:24:39.334Z,65.61
2018-10-07T17:27:06.827Z,65.34
2018-10-07T17:29:34.175Z,65.70
2018-10-07T17:32:01.629Z,65.63
2018-10-07T17:34:29.037Z,65.36
2018-10-07T17:36:56.567Z,65.55
2018-10-07T17:39:23.988Z,65.44
2018-10-07T17:41:51.404Z,65.38
2018-10-07T17:44:18.836Z,64.82
2018-10-07T17:46:46.264Z,64.48
2018-10-07T17:49:13.679Z,64.31
2018-10-07T17:51:41.099Z,64.19
2018-10-07T17:54:08.564Z,64.95
2018-10-07T17:56:36.095Z,63.94
2018-10-07T17:59:03.526Z,64.30
2018-10-07T18:01:30.980Z,64.24
2018-10-07T18:03:58.399Z,64.16
2018-10-07T18:06:25.862Z,62.87
2018-10-07T18:08:53.279Z,62.99
2018-10-07T18:11:20.694Z,62.75
2018-10-07T18:13:48.107Z,62.19
2018-10-07T18:16:15.522Z,63.10
2018-10-07T18:18:42.948Z,63.22
2018-10-07T18:21:10.480Z,63.49
2018-10-07T18:23:37.779Z,63.50
2018-10-07T18:26:05.195Z,62.41
2018-10-07T18:28:32.667Z,62.28
2018-10-07T18:31:00.080Z,63.42
2018-10-07T18:33:27.493Z,63.37
2018-10-07T18:35:54.914Z,61.80
2018-10-07T18:38:22.395Z,62.12
2018-10-07T18:40:49.779Z,62.90
2018-10-07T18:43:17.277Z,62.81
2018-10-07T18:45:44.662Z,62.98
2018-10-07T18:48:12.057Z,62.76
2018-10-07T18:50:39.473Z,62.02
2018-10-07T18:53:06.883Z,62.81
2018-10-07T18:55:34.301Z,62.59
2018-10-07T18:58:01.724Z,62.86
2018-10-07T19:00:29.138Z,62.79
2018-10-07T19:02:56.785Z,62.95
2018-10-07T19:05:24.075Z,62.23
2018-10-07T19:07:51.655Z,63.19
2018-10-07T19:10:19.171Z,63.02
2018-10-07T19:12:46.587Z,62.78
2018-10-07T19:15:13.996Z,62.65
2018-10-07T19:17:41.419Z,62.70
2018-10-07T19:20:08.835Z,63.41
2018-10-07T19:22:36.256Z,62.67
2018-10-07T19:25:03.671Z,62.91
2018-10-07T19:27:31.139Z,63.36
2018-10-07T19:29:58.575Z,62.51
2018-10-07T19:32:26.015Z,63.25
2018-10-07T19:34:53.435Z,62.50
2018-10-07T19:37:21.015Z,63.13
2018-10-07T19:39:48.259Z,62.40
2018-10-07T19:42:15.688Z,62.77
2018-10-07T19:44:43.149Z,62.83
2018-10-07T19:47:10.534Z,62.82
2018-10-07T19:49:37.935Z,62.64
2018-10-07T19:52:05.361Z,61.68
2018-10-07T19:54:32.780Z,61.83
2018-10-07T19:57:00.199Z,62.85
2018-10-07T19:59:27.681Z,62.11
2018-10-07T20:01:55.095Z,60.63
2018-10-07T20:04:22.519Z,61.00
2018-10-07T20:06:49.943Z,62.02
2018-10-07T20:09:17.355Z,61.64
2018-10-07T20:11:44.780Z,61.64
2018-10-07T20:14:12.203Z,61.96
2018-10-07T20:16:39.779Z,61.99
2018-10-07T20:19:07.427Z,61.69
2018-10-07T20:21:34.867Z,62.80
2018-10-07T20:24:02.228Z,62.10
2018-10-07T20:26:29.712Z,61.68
2018-10-07T20:28:57.177Z,62.93
2018-10-07T20:31:24.587Z,62.96
2018-10-07T20:33:52.291Z,63.73
2018-10-07T20:36:19.671Z,62.52
2018-10-07T20:38:47.091Z,62.92
2018-10-07T20:41:14.503Z,63.57
2018-10-07T20:43:42.018Z,62.93
2018-10-07T20:46:09.444Z,63.64
2018-10-07T20:48:36.868Z,64.05
2018-10-07T20:51:04.347Z,64.45
2018-10-07T20:53:31.764Z,65.10
2018-10-07T20:55:59.202Z,65.83
2018-10-07T20:58:26.631Z,65.16
2018-10-07T21:00:54.047Z,65.69
2018-10-07T21:03:21.479Z,66.22
2018-10-07T21:05:48.927Z,67.48
2018-10-07T21:08:16.348Z,68.35
2018-10-07T21:10:43.791Z,70.11
2018-10-07T21:13:11.266Z,70.53
2018-10-07T21:15:38.684Z,69.98
2018-10-07T21:18:06.098Z,70.09
2018-10-07T21:20:33.503Z,69.96
2018-10-07T21:23:00.929Z,69.61
2018-10-07T21:25:28.336Z,69.96
2018-10-07T21:27:55.746Z,70.95
2018-10-07T21:30:23.155Z,70.37
2018-10-07T21:32:50.581Z,71.81
2018-10-07T21:35:17.991Z,71.59
2018-10-07T21:37:45.534Z,71.54
2018-10-07T21:40:12.949Z,72.25
2018-10-07T21:42:40.353Z,72.30
2018-10-07T21:45:07.840Z,71.60
2018-10-07T21:47:35.300Z,72.83
2018-10-07T21:50:02.757Z,72.79
2018-10-07T21:52:30.209Z,73.29
2018-10-07T21:54:57.679Z,72.97
2018-10-07T21:57:25.099Z,73.38
2018-10-07T21:59:52.652Z,73.22
2018-10-07T22:02:20.063Z,73.38
2018-10-07T22:04:47.466Z,73.52
2018-10-07T22:07:14.878Z,74.05
2018-10-07T22:09:42.279Z,73.72
2018-10-07T22:12:09.686Z,73.63
2018-10-07T22:14:37.127Z,75.11
2018-10-07T22:17:04.546Z,75.34
2018-10-07T22:19:32.391Z,74.86
2018-10-07T22:21:59.798Z,75.37
2018-10-07T22:24:27.207Z,75.27
2018-10-07T22:26:54.625Z,76.39
2018-10-07T22:29:22.047Z,76.18
2018-10-07T22:31:49.458Z,76.21
2018-10-07T22:34:16.876Z,75.72
2018-10-07T22:36:44.286Z,75.41
2018-10-07T22:39:11.709Z,75.69
2018-10-07T22:41:39.125Z,75.53
2018-10-07T22:44:06.538Z,75.15
2018-10-07T22:46:33.947Z,74.92
2018-10-07T22:49:01.375Z,75.08
2018-10-07T22:51:28.780Z,74.24
2018-10-07T22:53:56.205Z,76.48
2018-10-07T22:56:23.611Z,79.11
2018-10-07T22:58:51.026Z,77.60
2018-10-07T23:01:18.445Z,77.59
2018-10-07T23:03:45.856Z,76.36
2018-10-07T23:06:13.332Z,75.74
2018-10-07T23:08:40.771Z,76.07
2018-10-07T23:11:08.276Z,76.62
2018-10-07T23:13:35.686Z,78.12
2018-10-07T23:16:03.092Z,78.25
2018-10-07T23:18:30.607Z,78.25
2018-10-07T23:20:58.010Z,78.02
2018-10-07T23:23:25.426Z,77.97
2018-10-07T23:25:52.814Z,77.49
2018-10-07T23:28:20.236Z,77.20
2018-10-07T23:30:47.703Z,78.92
2018-10-07T23:33:15.115Z,79.10
2018-10-07T23:35:42.515Z,79.81
2018-10-07T23:38:09.924Z,78.34
2018-10-07T23:40:37.330Z,78.30
2018-10-07T23:43:04.750Z,77.70
2018-10-07T23:45:32.156Z,77.50
2018-10-07T23:47:59.576Z,78.92
2018-10-07T23:50:26.987Z,78.72
2018-10-07T23:52:54.396Z,77.57
2018-10-07T23:55:21.875Z,77.63
2018-10-07T23:57:49.287Z,77.79
